sensor_id;sensor_type;location;lat;lon;timestamp;pressure;altitude;pressure_sealevel;temperature;humidity
22018;BME280;11173;51.050;7.108;2023-04-09T00:05:24;100390.88;;;5.00;72.26
22018;BME280;11173;51.050;7.108;2023-04-09T00:15:25;100394.84;;;5.02;71.77
22018;BME280;11173;51.050;7.108;2023-04-09T00:25:25;100382.50;;;4.96;71.32
22018;BME280;11173;51.050;7.108;2023-04-09T00:35:27;100380.34;;;4.86;71.57
22018;BME280;11173;51.050;7.108;2023-04-09T00:45:28;100379.25;;;4.71;72.42
22018;BME280;11173;51.050;7.108;2023-04-09T00:55:29;100374.44;;;4.68;72.33
22018;BME280;11173;51.050;7.108;2023-04-09T01:05:43;100376.34;;;4.64;72.04
22018;BME280;11173;51.050;7.108;2023-04-09T01:15:48;100370.16;;;4.51;71.70
22018;BME280;11173;51.050;7.108;2023-04-09T01:26:15;100365.19;;;4.41;72.13
22018;BME280;11173;51.050;7.108;2023-04-09T01:36:18;100361.78;;;4.28;71.63
22018;BME280;11173;51.050;7.108;2023-04-09T01:46:20;100360.59;;;4.09;71.65
22018;BME280;11173;51.050;7.108;2023-04-09T01:56:21;100367.63;;;3.91;71.57
22018;BME280;11173;51.050;7.108;2023-04-09T02:06:32;100371.91;;;3.72;72.40
22018;BME280;11173;51.050;7.108;2023-04-09T02:16:35;100362.50;;;3.57;72.58
22018;BME280;11173;51.050;7.108;2023-04-09T02:26:36;100356.19;;;3.41;72.91
22018;BME280;11173;51.050;7.108;2023-04-09T02:36:36;100353.94;;;3.31;72.81
22018;BME280;11173;51.050;7.108;2023-04-09T02:46:37;100341.41;;;3.17;72.99
22018;BME280;11173;51.050;7.108;2023-04-09T02:56:38;100338.47;;;3.10;72.55
22018;BME280;11173;51.050;7.108;2023-04-09T03:06:38;100342.09;;;2.98;72.60
22018;BME280;11173;51.050;7.108;2023-04-09T03:16:38;100331.34;;;2.81;73.19
22018;BME280;11173;51.050;7.108;2023-04-09T03:26:39;100322.03;;;2.70;73.76
22018;BME280;11173;51.050;7.108;2023-04-09T03:36:39;100319.88;;;2.63;73.43
22018;BME280;11173;51.050;7.108;2023-04-09T03:46:40;100318.88;;;2.55;73.37
22018;BME280;11173;51.050;7.108;2023-04-09T03:56:40;100319.09;;;2.50;73.12
22018;BME280;11173;51.050;7.108;2023-04-09T04:06:40;100312.25;;;2.44;73.07
22018;BME280;11173;51.050;7.108;2023-04-09T04:16:41;100325.09;;;2.40;72.32
22018;BME280;11173;51.050;7.108;2023-04-09T04:26:41;100310.94;;;2.26;72.20
22018;BME280;11173;51.050;7.108;2023-04-09T04:36:41;100314.50;;;2.26;71.99
22018;BME280;11173;51.050;7.108;2023-04-09T04:46:42;100313.59;;;2.22;72.04
22018;BME280;11173;51.050;7.108;2023-04-09T04:56:42;100320.88;;;2.30;71.72
22018;BME280;11173;51.050;7.108;2023-04-09T05:06:42;100319.50;;;2.36;71.65
22018;BME280;11173;51.050;7.108;2023-04-09T05:16:43;100331.16;;;2.46;71.56
22018;BME280;11173;51.050;7.108;2023-04-09T05:26:43;100330.88;;;2.63;71.12
22018;BME280;11173;51.050;7.108;2023-04-09T05:36:43;100339.25;;;2.83;70.87
22018;BME280;11173;51.050;7.108;2023-04-09T05:46:44;100344.25;;;3.05;70.61
22018;BME280;11173;51.050;7.108;2023-04-09T05:56:44;100349.69;;;3.33;71.43
22018;BME280;11173;51.050;7.108;2023-04-09T06:06:45;100334.28;;;3.96;70.69
22018;BME280;11173;51.050;7.108;2023-04-09T06:16:46;100341.78;;;4.70;69.81
22018;BME280;11173;51.050;7.108;2023-04-09T06:26:46;100339.78;;;5.09;67.40
22018;BME280;11173;51.050;7.108;2023-04-09T06:36:46;100344.38;;;5.25;67.01
22018;BME280;11173;51.050;7.108;2023-04-09T06:46:47;100347.69;;;5.53;67.99
22018;BME280;11173;51.050;7.108;2023-04-09T06:56:47;100346.63;;;5.85;68.31
22018;BME280;11173;51.050;7.108;2023-04-09T07:06:48;100350.41;;;6.30;68.73
22018;BME280;11173;51.050;7.108;2023-04-09T07:16:48;100364.81;;;6.73;67.96
22018;BME280;11173;51.050;7.108;2023-04-09T07:26:48;100373.56;;;7.12;66.14
22018;BME280;11173;51.050;7.108;2023-04-09T07:36:49;100370.19;;;7.67;67.39
22018;BME280;11173;51.050;7.108;2023-04-09T07:46:50;100376.53;;;8.23;68.70
22018;BME280;11173;51.050;7.108;2023-04-09T07:56:50;100366.81;;;8.54;68.37
22018;BME280;11173;51.050;7.108;2023-04-09T08:06:51;100377.56;;;8.67;67.45
22018;BME280;11173;51.050;7.108;2023-04-09T08:16:52;100369.28;;;8.77;63.62
22018;BME280;11173;51.050;7.108;2023-04-09T08:26:53;100361.44;;;8.94;64.60
22018;BME280;11173;51.050;7.108;2023-04-09T08:36:53;100369.44;;;9.17;66.88
22018;BME280;11173;51.050;7.108;2023-04-09T08:46:54;100359.94;;;9.29;62.56
22018;BME280;11173;51.050;7.108;2023-04-09T08:56:54;100373.47;;;9.55;63.77
22018;BME280;11173;51.050;7.108;2023-04-09T09:07:05;100375.88;;;9.75;63.42
22018;BME280;11173;51.050;7.108;2023-04-09T09:17:05;100357.97;;;9.94;63.50
22018;BME280;11173;51.050;7.108;2023-04-09T09:27:07;100352.75;;;10.25;65.58
22018;BME280;11173;51.050;7.108;2023-04-09T09:37:25;100358.66;;;10.59;63.35
22018;BME280;11173;51.050;7.108;2023-04-09T09:47:28;100342.13;;;11.08;64.79
22018;BME280;11173;51.050;7.108;2023-04-09T09:57:29;100340.91;;;11.68;62.62
22018;BME280;11173;51.050;7.108;2023-04-09T10:07:31;100344.00;;;12.23;63.31
22018;BME280;11173;51.050;7.108;2023-04-09T10:17:32;100325.47;;;12.74;63.25
22018;BME280;11173;51.050;7.108;2023-04-09T10:27:32;100324.09;;;13.17;56.31
22018;BME280;11173;51.050;7.108;2023-04-09T10:37:34;100320.59;;;13.36;60.67
22018;BME280;11173;51.050;7.108;2023-04-09T10:47:36;100313.75;;;13.64;50.25
22018;BME280;11173;51.050;7.108;2023-04-09T10:57:37;100311.22;;;14.17;57.85
22018;BME280;11173;51.050;7.108;2023-04-09T11:07:40;100320.34;;;14.61;60.75
22018;BME280;11173;51.050;7.108;2023-04-09T11:17:44;100298.66;;;14.85;60.73
22018;BME280;11173;51.050;7.108;2023-04-09T11:27:45;100286.69;;;15.18;59.15
22018;BME280;11173;51.050;7.108;2023-04-09T11:37:46;100283.97;;;15.63;59.20
22018;BME280;11173;51.050;7.108;2023-04-09T11:47:47;100285.63;;;15.94;59.28
22018;BME280;11173;51.050;7.108;2023-04-09T11:57:50;100285.53;;;15.97;50.09
22018;BME280;11173;51.050;7.108;2023-04-09T12:07:52;100285.28;;;16.21;58.02
22018;BME280;11173;51.050;7.108;2023-04-09T12:17:56;100276.81;;;16.50;57.76
22018;BME280;11173;51.050;7.108;2023-04-09T12:27:57;100273.31;;;16.46;55.07
22018;BME280;11173;51.050;7.108;2023-04-09T12:37:57;100263.34;;;16.16;39.39
22018;BME280;11173;51.050;7.108;2023-04-09T12:48:00;100257.91;;;15.79;42.47
22018;BME280;11173;51.050;7.108;2023-04-09T12:58:01;100257.91;;;15.63;48.38
22018;BME280;11173;51.050;7.108;2023-04-09T13:08:01;100256.09;;;15.40;45.56
22018;BME280;11173;51.050;7.108;2023-04-09T13:18:02;100244.41;;;15.25;49.46
22018;BME280;11173;51.050;7.108;2023-04-09T13:28:03;100247.41;;;15.34;44.91
22018;BME280;11173;51.050;7.108;2023-04-09T13:38:03;100249.31;;;15.37;52.39
22018;BME280;11173;51.050;7.108;2023-04-09T13:48:05;100230.97;;;15.49;51.80
22018;BME280;11173;51.050;7.108;2023-04-09T13:58:06;100228.13;;;15.82;48.53
22018;BME280;11173;51.050;7.108;2023-04-09T14:08:06;100225.78;;;15.80;39.34
22018;BME280;11173;51.050;7.108;2023-04-09T14:18:06;100219.38;;;15.80;50.81
22018;BME280;11173;51.050;7.108;2023-04-09T14:28:07;100202.41;;;15.83;43.54
22018;BME280;11173;51.050;7.108;2023-04-09T14:38:07;100203.84;;;15.59;46.07
22018;BME280;11173;51.050;7.108;2023-04-09T14:48:09;100192.94;;;15.61;43.95
22018;BME280;11173;51.050;7.108;2023-04-09T14:58:09;100200.47;;;15.35;47.40
22018;BME280;11173;51.050;7.108;2023-04-09T15:08:09;100197.31;;;15.16;44.28
22018;BME280;11173;51.050;7.108;2023-04-09T15:18:10;100189.25;;;15.02;45.69
22018;BME280;11173;51.050;7.108;2023-04-09T15:28:10;100180.31;;;14.90;42.76
22018;BME280;11173;51.050;7.108;2023-04-09T15:38:10;100184.63;;;14.75;39.50
22018;BME280;11173;51.050;7.108;2023-04-09T15:48:11;100195.91;;;14.55;47.13
22018;BME280;11173;51.050;7.108;2023-04-09T15:58:11;100187.38;;;14.79;49.40
22018;BME280;11173;51.050;7.108;2023-04-09T16:08:11;100178.19;;;15.11;49.99
22018;BME280;11173;51.050;7.108;2023-04-09T16:18:12;100181.88;;;15.24;49.14
22018;BME280;11173;51.050;7.108;2023-04-09T16:28:12;100185.38;;;15.28;48.88
22018;BME280;11173;51.050;7.108;2023-04-09T16:38:15;100174.88;;;15.00;49.55
22018;BME280;11173;51.050;7.108;2023-04-09T16:48:16;100173.59;;;14.51;49.61
22018;BME280;11173;51.050;7.108;2023-04-09T16:58:16;100167.97;;;13.95;46.57
22018;BME280;11173;51.050;7.108;2023-04-09T17:08:19;100133.53;;;13.35;44.93
22018;BME280;11173;51.050;7.108;2023-04-09T17:18:23;100120.97;;;12.76;44.97
22018;BME280;11173;51.050;7.108;2023-04-09T17:28:24;100139.28;;;12.22;46.93
22018;BME280;11173;51.050;7.108;2023-04-09T17:38:24;100148.16;;;11.83;45.00
22018;BME280;11173;51.050;7.108;2023-04-09T17:48:26;100151.72;;;11.49;49.39
22018;BME280;11173;51.050;7.108;2023-04-09T17:58:27;100168.28;;;11.25;50.47
22018;BME280;11173;51.050;7.108;2023-04-09T18:08:27;100161.84;;;10.87;47.91
22018;BME280;11173;51.050;7.108;2023-04-09T18:18:28;100149.78;;;10.45;48.45
22018;BME280;11173;51.050;7.108;2023-04-09T18:28:32;100154.78;;;9.98;47.25
22018;BME280;11173;51.050;7.108;2023-04-09T18:38:33;100160.13;;;9.49;49.17
22018;BME280;11173;51.050;7.108;2023-04-09T18:48:34;100164.53;;;9.18;49.61
22018;BME280;11173;51.050;7.108;2023-04-09T18:58:34;100162.09;;;8.80;49.71
22018;BME280;11173;51.050;7.108;2023-04-09T19:08:35;100173.22;;;8.69;50.63
22018;BME280;11173;51.050;7.108;2023-04-09T19:18:36;100179.53;;;8.41;50.24
22018;BME280;11173;51.050;7.108;2023-04-09T19:28:37;100181.41;;;8.15;50.34
22018;BME280;11173;51.050;7.108;2023-04-09T19:38:37;100173.03;;;7.98;51.07
22018;BME280;11173;51.050;7.108;2023-04-09T19:48:38;100172.56;;;7.81;51.31
22018;BME280;11173;51.050;7.108;2023-04-09T19:58:40;100177.25;;;7.70;51.09
22018;BME280;11173;51.050;7.108;2023-04-09T20:08:40;100173.22;;;7.60;52.21
22018;BME280;11173;51.050;7.108;2023-04-09T20:18:41;100174.78;;;7.54;52.80
22018;BME280;11173;51.050;7.108;2023-04-09T20:28:42;100181.44;;;7.42;52.54
22018;BME280;11173;51.050;7.108;2023-04-09T20:38:42;100176.22;;;7.30;52.52
22018;BME280;11173;51.050;7.108;2023-04-09T20:48:43;100169.78;;;7.19;52.02
22018;BME280;11173;51.050;7.108;2023-04-09T20:58:43;100161.44;;;7.15;52.54
22018;BME280;11173;51.050;7.108;2023-04-09T21:08:44;100156.56;;;6.97;52.62
22018;BME280;11173;51.050;7.108;2023-04-09T21:18:45;100150.16;;;6.90;52.34
22018;BME280;11173;51.050;7.108;2023-04-09T21:28:45;100135.88;;;6.81;53.03
22018;BME280;11173;51.050;7.108;2023-04-09T21:38:49;100134.97;;;6.69;52.35
22018;BME280;11173;51.050;7.108;2023-04-09T21:48:49;100137.28;;;6.64;52.85
22018;BME280;11173;51.050;7.108;2023-04-09T21:58:50;100145.63;;;6.67;53.32
22018;BME280;11173;51.050;7.108;2023-04-09T22:08:50;100130.91;;;6.60;52.93
22018;BME280;11173;51.050;7.108;2023-04-09T22:18:51;100120.16;;;6.51;53.15
22018;BME280;11173;51.050;7.108;2023-04-09T22:28:52;100126.88;;;6.50;53.32
22018;BME280;11173;51.050;7.108;2023-04-09T22:38:53;100141.03;;;6.41;53.61
22018;BME280;11173;51.050;7.108;2023-04-09T22:48:53;100155.56;;;6.31;53.61
22018;BME280;11173;51.050;7.108;2023-04-09T22:58:53;100155.13;;;6.29;53.99
22018;BME280;11173;51.050;7.108;2023-04-09T23:08:54;100170.94;;;6.28;53.89
22018;BME280;11173;51.050;7.108;2023-04-09T23:18:54;100161.41;;;6.26;53.64
22018;BME280;11173;51.050;7.108;2023-04-09T23:28:54;100155.47;;;6.24;53.88
22018;BME280;11173;51.050;7.108;2023-04-09T23:38:55;100147.16;;;6.24;54.00
22018;BME280;11173;51.050;7.108;2023-04-09T23:48:55;100137.63;;;6.17;54.29
22018;BME280;11173;51.050;7.108;2023-04-09T23:58:56;100135.19;;;6.12;54.65
